createdAt,value
2017-09-18T00:01:15.618Z,20.57
2017-09-18T00:03:43.475Z,18.20
2017-09-18T00:06:11.293Z,19.67
2017-09-18T00:08:39.117Z,18.43
2017-09-18T00:11:06.937Z,19.07
2017-09-18T00:13:41.006Z,17.93
2017-09-18T00:16:08.832Z,17.90
2017-09-18T00:18:36.669Z,18.23
2017-09-18T00:21:04.472Z,19.07
2017-09-18T00:23:33.068Z,20.07
2017-09-18T00:26:00.885Z,20.33
2017-09-18T00:28:28.713Z,20.97
2017-09-18T00:30:56.536Z,19.10
2017-09-18T00:33:24.381Z,18.30
2017-09-18T00:35:52.248Z,17.70
2017-09-18T00:38:20.072Z,18.80
2017-09-18T00:40:47.896Z,17.53
2017-09-18T00:43:15.716Z,17.80
2017-09-18T00:45:43.530Z,18.23
2017-09-18T00:48:11.373Z,17.27
2017-09-18T00:50:39.201Z,19.60
2017-09-18T00:53:07.050Z,17.50
2017-09-18T00:55:34.896Z,17.70
2017-09-18T00:58:02.830Z,18.60
2017-09-18T01:00:30.984Z,18.23
2017-09-18T01:02:58.794Z,17.30
2017-09-18T01:05:26.642Z,17.67
2017-09-18T01:07:54.477Z,17.20
2017-09-18T01:10:22.293Z,17.73
2017-09-18T01:12:50.104Z,16.30
2017-09-18T01:15:17.917Z,18.70
2017-09-18T01:17:45.739Z,18.70
2017-09-18T01:20:13.576Z,17.83
2017-09-18T01:22:41.385Z,16.00
2017-09-18T01:25:09.266Z,17.47
2017-09-18T01:27:37.098Z,17.57
2017-09-18T01:30:04.943Z,17.53
2017-09-18T01:32:32.770Z,18.40
2017-09-18T01:35:00.639Z,17.87
2017-09-18T01:37:28.485Z,18.50
2017-09-18T01:39:56.313Z,17.90
2017-09-18T01:42:24.138Z,18.70
2017-09-18T01:44:51.977Z,16.27
2017-09-18T01:47:19.795Z,17.73
2017-09-18T01:49:47.614Z,18.70
2017-09-18T01:52:15.473Z,17.30
2017-09-18T01:54:43.280Z,17.60
2017-09-18T01:57:11.133Z,17.10
2017-09-18T01:59:45.829Z,16.77
2017-09-18T02:02:13.669Z,18.83
2017-09-18T02:04:41.509Z,18.43
2017-09-18T02:07:09.377Z,16.83
2017-09-18T02:09:37.217Z,17.70
2017-09-18T02:12:05.060Z,18.20
2017-09-18T02:14:32.874Z,18.70
2017-09-18T02:17:00.737Z,15.97
2017-09-18T02:19:28.601Z,16.07
2017-09-18T02:21:56.425Z,16.80
2017-09-18T02:24:24.240Z,16.73
2017-09-18T02:26:52.093Z,17.87
2017-09-18T02:29:19.945Z,17.50
2017-09-18T02:31:47.785Z,19.10
2017-09-18T02:34:15.638Z,17.63
2017-09-18T02:36:43.489Z,17.97
2017-09-18T02:39:11.352Z,17.27
2017-09-18T02:41:39.190Z,16.90
2017-09-18T02:44:07.013Z,17.53
2017-09-18T02:46:34.832Z,18.53
2017-09-18T02:49:02.677Z,16.53
2017-09-18T02:51:30.808Z,17.20
2017-09-18T02:53:58.636Z,18.37
2017-09-18T02:56:26.485Z,17.60
2017-09-18T02:58:54.304Z,21.90
2017-09-18T03:01:22.134Z,20.73
2017-09-18T03:03:49.953Z,21.33
2017-09-18T03:06:17.797Z,19.67
2017-09-18T03:08:45.616Z,20.50
2017-09-18T03:11:13.463Z,18.80
2017-09-18T03:13:41.302Z,20.20
2017-09-18T03:16:09.129Z,19.10
2017-09-18T03:18:36.928Z,19.30
2017-09-18T03:21:04.777Z,19.77
2017-09-18T03:23:32.600Z,18.90
2017-09-18T03:26:00.473Z,19.80
2017-09-18T03:28:28.293Z,19.33
2017-09-18T03:30:56.148Z,20.17
2017-09-18T03:33:23.974Z,20.50
2017-09-18T03:35:51.837Z,19.90
2017-09-18T03:38:19.668Z,19.97
2017-09-18T03:40:47.476Z,20.80
2017-09-18T03:43:15.296Z,22.53
2017-09-18T03:45:43.148Z,22.60
2017-09-18T03:48:10.940Z,22.37
2017-09-18T03:50:38.766Z,22.67
2017-09-18T03:53:06.617Z,22.17
2017-09-18T03:55:34.476Z,22.87
2017-09-18T03:58:02.316Z,22.33
2017-09-18T04:00:30.168Z,24.67
2017-09-18T04:02:58.013Z,24.77
2017-09-18T04:05:25.818Z,23.30
2017-09-18T04:07:53.661Z,23.53
2017-09-18T04:10:21.503Z,26.40
2017-09-18T04:12:49.336Z,27.67
2017-09-18T04:15:17.139Z,26.67
2017-09-18T04:17:44.948Z,26.30
2017-09-18T04:20:12.765Z,28.53
2017-09-18T04:22:40.622Z,29.00
2017-09-18T04:25:08.445Z,32.90
2017-09-18T04:27:36.280Z,30.03
2017-09-18T04:30:04.136Z,31.30
2017-09-18T04:32:31.945Z,29.03
2017-09-18T04:34:59.777Z,28.13
2017-09-18T04:37:27.643Z,24.83
2017-09-18T04:39:55.485Z,30.10
2017-09-18T04:42:23.293Z,28.20
2017-09-18T04:44:51.113Z,29.23
2017-09-18T04:47:18.950Z,28.90
2017-09-18T04:49:46.829Z,28.57
2017-09-18T04:52:14.649Z,29.13
2017-09-18T04:54:42.498Z,28.40
2017-09-18T04:57:10.309Z,27.10
2017-09-18T04:59:38.149Z,27.33
2017-09-18T05:02:05.978Z,27.87
2017-09-18T05:04:33.842Z,29.70
2017-09-18T05:07:01.656Z,27.80
2017-09-18T05:09:29.482Z,27.50
2017-09-18T05:11:57.566Z,27.80
2017-09-18T05:14:25.387Z,28.40
2017-09-18T05:16:53.236Z,28.17
2017-09-18T05:19:21.078Z,29.40
2017-09-18T05:21:48.939Z,29.80
2017-09-18T05:24:16.769Z,30.23
2017-09-18T05:26:44.604Z,26.67
2017-09-18T05:29:12.437Z,30.50
2017-09-18T05:31:40.280Z,30.90
2017-09-18T05:34:08.131Z,29.50
2017-09-18T05:36:35.968Z,29.30
2017-09-18T05:39:03.801Z,27.90
2017-09-18T05:41:31.668Z,27.27
2017-09-18T05:43:59.488Z,28.07
2017-09-18T05:46:27.276Z,26.63
2017-09-18T05:48:55.088Z,29.93
2017-09-18T05:51:22.904Z,28.70
2017-09-18T05:53:50.723Z,29.40
2017-09-18T05:56:18.657Z,29.43
2017-09-18T05:58:46.506Z,28.30
2017-09-18T06:01:14.349Z,28.97
2017-09-18T06:03:42.180Z,29.57
2017-09-18T06:06:10.015Z,26.53
2017-09-18T06:08:37.886Z,28.10
2017-09-18T06:11:05.729Z,27.53
2017-09-18T06:13:33.564Z,27.70
2017-09-18T06:16:01.381Z,25.37
2017-09-18T06:18:29.216Z,25.10
2017-09-18T06:20:57.152Z,27.30
2017-09-18T06:23:24.975Z,27.37
2017-09-18T06:25:52.814Z,29.03
2017-09-18T06:28:20.648Z,27.10
2017-09-18T06:30:48.487Z,29.63
2017-09-18T06:33:16.308Z,29.10
2017-09-18T06:35:44.173Z,29.40
2017-09-18T06:38:11.976Z,30.20
2017-09-18T06:40:39.803Z,32.47
2017-09-18T06:43:07.608Z,30.70
2017-09-18T06:45:35.437Z,31.90
2017-09-18T06:48:03.255Z,33.83
2017-09-18T06:50:31.086Z,32.90
2017-09-18T06:52:58.893Z,32.53
2017-09-18T06:55:26.716Z,32.27
2017-09-18T06:57:54.520Z,30.93
2017-09-18T07:00:22.380Z,30.57
2017-09-18T07:02:50.211Z,31.47
2017-09-18T07:05:18.032Z,28.33
2017-09-18T07:07:45.872Z,29.97
2017-09-18T07:10:13.708Z,32.57
2017-09-18T07:12:41.510Z,30.00
2017-09-18T07:15:09.328Z,29.77
2017-09-18T07:17:37.161Z,28.57
2017-09-18T07:20:04.970Z,26.67
2017-09-18T07:22:32.805Z,29.83
2017-09-18T07:25:00.624Z,26.10
2017-09-18T07:27:28.443Z,27.77
2017-09-18T07:29:56.252Z,25.20
2017-09-18T07:32:24.099Z,27.93
2017-09-18T07:34:51.910Z,27.43
2017-09-18T07:37:19.740Z,26.77
2017-09-18T07:39:47.564Z,30.00
2017-09-18T07:42:15.380Z,30.93
2017-09-18T07:44:43.186Z,29.40
2017-09-18T07:47:10.980Z,28.47
2017-09-18T07:49:38.816Z,33.43
2017-09-18T07:52:06.637Z,33.20
2017-09-18T07:54:34.476Z,30.40
2017-09-18T07:57:02.277Z,29.60
2017-09-18T07:59:30.101Z,28.50
2017-09-18T08:01:58.003Z,25.60
2017-09-18T08:04:25.832Z,24.30
2017-09-18T08:06:53.640Z,22.27
2017-09-18T08:09:21.484Z,19.77
2017-09-18T08:11:49.420Z,20.23
2017-09-18T08:14:17.236Z,18.67
2017-09-18T08:16:45.065Z,20.53
2017-09-18T08:19:12.876Z,20.70
2017-09-18T08:21:40.693Z,15.50
2017-09-18T08:24:08.504Z,15.50
2017-09-18T08:26:36.560Z,17.77
2017-09-18T08:29:04.945Z,18.50
2017-09-18T08:31:32.805Z,17.43
2017-09-18T08:34:00.624Z,20.70
2017-09-18T08:36:28.453Z,20.10
2017-09-18T08:38:56.256Z,19.97
2017-09-18T08:41:24.125Z,17.87
2017-09-18T08:43:51.947Z,16.37
2017-09-18T08:46:19.790Z,14.77
2017-09-18T08:48:47.609Z,15.10
2017-09-18T08:51:15.459Z,10.13
2017-09-18T08:53:43.287Z,11.80
2017-09-18T08:56:11.134Z,10.73
2017-09-18T08:58:38.956Z,11.20
2017-09-18T09:01:06.803Z,10.13
2017-09-18T09:03:34.656Z,10.77
2017-09-18T09:06:02.472Z,9.07
2017-09-18T09:08:30.315Z,8.60
2017-09-18T09:10:58.149Z,9.17
2017-09-18T09:13:25.974Z,8.60
2017-09-18T09:15:53.810Z,8.77
2017-09-18T09:18:21.679Z,8.03
2017-09-18T09:20:49.496Z,7.53
2017-09-18T09:23:17.333Z,7.67
2017-09-18T09:25:45.154Z,7.47
2017-09-18T09:28:12.964Z,7.70
2017-09-18T09:30:40.802Z,6.10
2017-09-18T09:33:08.645Z,5.70
2017-09-18T09:35:36.493Z,6.10
2017-09-18T09:38:04.340Z,9.93
2017-09-18T09:40:32.173Z,8.80
2017-09-18T09:43:00.006Z,6.57
2017-09-18T09:45:27.832Z,5.90
2017-09-18T09:47:55.657Z,4.73
2017-09-18T09:50:23.501Z,6.60
2017-09-18T09:52:51.325Z,5.17
2017-09-18T09:55:19.150Z,8.50
2017-09-18T09:57:46.979Z,7.17
2017-09-18T10:00:14.825Z,6.83
2017-09-18T10:02:42.645Z,9.23
2017-09-18T10:05:10.468Z,10.07
2017-09-18T10:07:38.300Z,8.33
2017-09-18T10:10:06.127Z,9.90
2017-09-18T10:12:33.961Z,9.50
2017-09-18T10:15:01.780Z,13.43
2017-09-18T10:17:29.605Z,7.70
2017-09-18T10:19:57.453Z,7.70
2017-09-18T10:22:25.280Z,8.07
2017-09-18T10:24:53.133Z,8.50
2017-09-18T10:27:20.952Z,9.10
2017-09-18T10:29:48.783Z,9.70
2017-09-18T10:32:16.714Z,8.70
2017-09-18T10:34:44.516Z,9.63
2017-09-18T10:37:12.332Z,8.93
2017-09-18T10:39:40.178Z,9.00
2017-09-18T10:42:07.988Z,9.33
2017-09-18T10:44:35.829Z,8.70
2017-09-18T10:47:03.629Z,8.30
2017-09-18T10:49:31.481Z,7.70
2017-09-18T10:51:59.304Z,7.20
2017-09-18T10:54:27.136Z,6.37
2017-09-18T10:56:54.960Z,4.67
2017-09-18T10:59:22.801Z,4.70
2017-09-18T11:01:50.609Z,5.20
2017-09-18T11:04:18.474Z,5.30
2017-09-18T11:06:46.301Z,5.20
2017-09-18T11:09:14.125Z,4.30
2017-09-18T11:11:41.977Z,4.53
2017-09-18T11:14:09.798Z,4.20
2017-09-18T11:16:37.629Z,4.00
2017-09-18T11:19:05.440Z,4.37
2017-09-18T11:21:33.280Z,5.00
2017-09-18T11:24:01.102Z,4.67
2017-09-18T11:26:28.909Z,4.73
2017-09-18T11:28:56.730Z,4.93
2017-09-18T11:31:24.552Z,5.27
2017-09-18T11:33:52.372Z,6.10
2017-09-18T11:36:20.215Z,5.90
2017-09-18T11:38:48.037Z,5.97
2017-09-18T11:41:15.876Z,7.83
2017-09-18T11:43:43.708Z,6.90
2017-09-18T11:46:11.536Z,6.87
2017-09-18T11:48:39.374Z,7.50
2017-09-18T11:51:07.204Z,7.90
2017-09-18T11:53:35.050Z,8.33
2017-09-18T11:56:02.855Z,8.30
2017-09-18T11:58:30.678Z,11.47
2017-09-18T12:00:58.485Z,8.90
2017-09-18T12:03:26.334Z,8.67
2017-09-18T12:05:54.183Z,9.20
2017-09-18T12:08:22.045Z,11.47
2017-09-18T12:10:49.880Z,11.07
2017-09-18T12:13:17.744Z,11.57
2017-09-18T12:15:45.561Z,10.83
2017-09-18T12:18:13.376Z,11.70
2017-09-18T12:20:41.204Z,11.70
2017-09-18T12:23:09.049Z,11.80
2017-09-18T12:25:36.913Z,11.37
2017-09-18T12:28:04.739Z,11.93
2017-09-18T12:30:32.600Z,12.83
2017-09-18T12:33:00.426Z,11.60
2017-09-18T12:35:28.245Z,10.20
2017-09-18T12:37:56.873Z,9.33
2017-09-18T12:40:24.687Z,9.53
2017-09-18T12:42:52.524Z,9.40
2017-09-18T12:45:20.351Z,12.47
2017-09-18T12:47:48.214Z,11.27
2017-09-18T12:50:16.037Z,13.70
2017-09-18T12:52:43.868Z,14.40
2017-09-18T12:55:11.712Z,15.33
2017-09-18T12:57:39.548Z,16.87
2017-09-18T13:00:07.366Z,17.20
2017-09-18T13:02:35.209Z,15.47
2017-09-18T13:05:03.028Z,15.70
2017-09-18T13:07:30.841Z,14.70
2017-09-18T13:09:58.657Z,15.43
2017-09-18T13:12:26.526Z,16.47
2017-09-18T13:14:54.336Z,12.77
2017-09-18T13:17:22.153Z,12.97
2017-09-18T13:19:49.972Z,13.50
2017-09-18T13:22:17.797Z,12.57
2017-09-18T13:24:45.651Z,10.30
2017-09-18T13:27:13.473Z,9.63
2017-09-18T13:29:41.280Z,9.73
2017-09-18T13:32:09.086Z,9.80
2017-09-18T13:34:36.910Z,11.80
2017-09-18T13:37:04.740Z,10.70
2017-09-18T13:39:32.567Z,9.10
2017-09-18T13:42:00.429Z,10.90
2017-09-18T13:44:28.269Z,10.90
2017-09-18T13:46:56.078Z,10.67
2017-09-18T13:49:23.903Z,10.67
2017-09-18T13:51:51.721Z,10.10
2017-09-18T13:54:19.549Z,9.70
2017-09-18T13:56:47.356Z,10.27
2017-09-18T13:59:15.194Z,9.87
2017-09-18T14:01:43.032Z,10.57
2017-09-18T14:04:10.898Z,10.20
2017-09-18T14:06:38.728Z,10.00
2017-09-18T14:09:06.585Z,9.77
2017-09-18T14:11:34.428Z,12.70
2017-09-18T14:14:02.334Z,13.60
2017-09-18T14:16:30.166Z,12.93
2017-09-18T14:18:57.995Z,12.50
2017-09-18T14:21:25.859Z,13.10
2017-09-18T14:23:53.725Z,11.67
2017-09-18T14:26:21.525Z,10.97
2017-09-18T14:28:49.384Z,15.37
2017-09-18T14:31:17.210Z,14.40
2017-09-18T14:33:45.045Z,12.67
2017-09-18T14:36:12.886Z,13.43
2017-09-18T14:38:40.720Z,13.20
2017-09-18T14:41:08.572Z,13.20
2017-09-18T14:43:36.398Z,14.73
2017-09-18T14:46:04.240Z,14.57
2017-09-18T14:48:32.090Z,11.57
2017-09-18T14:50:59.930Z,13.30
2017-09-18T14:53:27.774Z,12.77
2017-09-18T14:55:55.605Z,13.03
2017-09-18T14:58:23.436Z,13.07
2017-09-18T15:00:51.253Z,10.60
2017-09-18T15:03:19.164Z,12.77
2017-09-18T15:05:46.986Z,15.23
2017-09-18T15:08:14.822Z,13.37
2017-09-18T15:10:42.660Z,13.87
2017-09-18T15:13:10.469Z,11.43
2017-09-18T15:15:38.320Z,14.50
2017-09-18T15:18:06.141Z,12.37
2017-09-18T15:20:33.957Z,10.47
2017-09-18T15:23:01.769Z,10.80
2017-09-18T15:25:29.592Z,11.43
2017-09-18T15:27:57.400Z,12.23
2017-09-18T15:30:25.220Z,12.70
2017-09-18T15:32:53.032Z,12.00
2017-09-18T15:35:20.875Z,12.33
2017-09-18T15:37:48.735Z,11.80
2017-09-18T15:40:16.528Z,11.70
2017-09-18T15:42:44.330Z,11.67
2017-09-18T15:45:12.148Z,10.37
2017-09-18T15:47:39.959Z,10.90
2017-09-18T15:50:07.786Z,9.77
2017-09-18T15:52:35.594Z,9.03
2017-09-18T15:55:03.401Z,8.83
2017-09-18T15:57:31.215Z,9.90
2017-09-18T15:59:59.289Z,9.40
2017-09-18T16:02:27.230Z,9.63
2017-09-18T16:04:55.805Z,10.73
2017-09-18T16:07:23.673Z,9.03
2017-09-18T16:09:51.875Z,10.00
2017-09-18T16:12:20.297Z,10.33
2017-09-18T16:14:48.592Z,10.07
2017-09-18T16:17:16.721Z,9.47
2017-09-18T16:19:44.598Z,10.90
2017-09-18T16:22:12.438Z,9.40
2017-09-18T16:24:40.267Z,9.47
2017-09-18T16:27:06.386Z,11.70
2017-09-18T16:29:32.559Z,10.40
2017-09-18T16:31:59.499Z,11.87
2017-09-18T16:34:26.748Z,12.23
2017-09-18T16:36:53.084Z,11.20
2017-09-18T16:39:19.165Z,13.83
2017-09-18T16:41:45.255Z,12.70
2017-09-18T16:44:12.070Z,12.57
2017-09-18T16:46:38.119Z,11.10
2017-09-18T16:49:04.250Z,11.20
2017-09-18T16:51:31.160Z,11.93
2017-09-18T16:53:57.346Z,12.90
2017-09-18T16:56:23.499Z,11.60
2017-09-18T16:58:49.747Z,11.50
2017-09-18T17:01:15.792Z,12.03
2017-09-18T17:03:41.857Z,11.50
2017-09-18T17:06:07.905Z,13.13
2017-09-18T17:08:34.241Z,13.10
2017-09-18T17:11:00.294Z,15.13
2017-09-18T17:13:26.370Z,15.70
2017-09-18T17:15:52.473Z,15.13
2017-09-18T17:18:18.596Z,17.00
2017-09-18T17:20:44.689Z,14.67
2017-09-18T17:23:10.794Z,14.60
2017-09-18T17:25:36.885Z,13.50
2017-09-18T17:28:03.702Z,8.80
2017-09-18T17:30:30.588Z,8.57
2017-09-18T17:32:56.777Z,7.93
2017-09-18T17:35:22.901Z,8.00
2017-09-18T17:37:49.017Z,7.43
2017-09-18T17:40:15.214Z,7.80
2017-09-18T17:42:41.280Z,7.10
2017-09-18T17:45:07.403Z,6.90
2017-09-18T17:47:33.497Z,7.10
2017-09-18T17:49:59.569Z,7.40
2017-09-18T17:52:25.653Z,8.70
2017-09-18T17:54:51.697Z,8.20
2017-09-18T17:57:17.762Z,8.97
2017-09-18T17:59:43.827Z,10.10
2017-09-18T18:02:09.891Z,10.80
2017-09-18T18:04:35.986Z,10.20
2017-09-18T18:07:02.169Z,10.27
2017-09-18T18:09:28.250Z,9.27
2017-09-18T18:11:54.307Z,10.40
2017-09-18T18:14:20.338Z,9.83
2017-09-18T18:16:47.656Z,9.40
2017-09-18T18:19:18.166Z,10.10
2017-09-18T18:21:45.259Z,9.50
2017-09-18T18:24:11.630Z,10.10
2017-09-18T18:26:39.631Z,11.33
2017-09-18T18:29:07.969Z,11.40
2017-09-18T18:31:34.127Z,9.23
2017-09-18T18:34:01.132Z,10.03
2017-09-18T18:36:27.496Z,11.27
2017-09-18T18:38:53.630Z,10.53
2017-09-18T18:41:19.903Z,11.90
2017-09-18T18:43:46.702Z,9.57
2017-09-18T18:46:12.801Z,9.40
2017-09-18T18:48:40.546Z,11.70
2017-09-18T18:51:06.852Z,11.70
2017-09-18T18:53:33.583Z,11.73
2017-09-18T18:55:59.699Z,11.57
2017-09-18T18:58:25.832Z,12.43
2017-09-18T19:00:51.869Z,13.63
2017-09-18T19:03:17.934Z,14.43
2017-09-18T19:05:44.009Z,17.60
2017-09-18T19:08:10.337Z,16.50
2017-09-18T19:10:36.465Z,19.40
2017-09-18T19:13:02.522Z,21.23
2017-09-18T19:15:28.681Z,19.90
2017-09-18T19:17:54.794Z,20.10
2017-09-18T19:20:20.897Z,20.10
2017-09-18T19:22:46.958Z,20.50
2017-09-18T19:25:13.793Z,18.07
2017-09-18T19:27:40.658Z,20.03
2017-09-18T19:30:06.777Z,19.10
2017-09-18T19:32:32.835Z,18.53
2017-09-18T19:34:58.871Z,20.47
2017-09-18T19:37:25.655Z,18.63
2017-09-18T19:39:51.712Z,19.90
2017-09-18T19:42:17.826Z,19.17
2017-09-18T19:44:43.954Z,19.77
2017-09-18T19:47:10.013Z,20.33
2017-09-18T19:49:36.154Z,19.90
2017-09-18T19:52:02.238Z,19.43
2017-09-18T19:54:29.049Z,20.87
2017-09-18T19:56:55.090Z,23.53
2017-09-18T19:59:21.130Z,21.20
2017-09-18T20:01:47.181Z,21.80
2017-09-18T20:04:13.247Z,21.67
2017-09-18T20:06:39.309Z,21.63
2017-09-18T20:09:06.157Z,22.10
2017-09-18T20:11:32.965Z,21.00
2017-09-18T20:13:59.052Z,22.10
2017-09-18T20:16:25.113Z,23.13
2017-09-18T20:18:51.195Z,21.73
2017-09-18T20:21:17.369Z,19.77
2017-09-18T20:23:43.455Z,22.77
2017-09-18T20:26:09.573Z,22.10
2017-09-18T20:28:35.639Z,18.70
2017-09-18T20:31:02.501Z,21.33
2017-09-18T20:33:28.573Z,21.77
2017-09-18T20:35:55.402Z,19.73
2017-09-18T20:38:21.484Z,20.57
2017-09-18T20:40:47.642Z,21.07
2017-09-18T20:43:13.718Z,22.83
2017-09-18T20:45:39.762Z,20.03
2017-09-18T20:48:05.822Z,21.27
2017-09-18T20:50:31.990Z,20.80
2017-09-18T20:52:58.103Z,20.23
2017-09-18T20:55:24.154Z,21.53
2017-09-18T20:57:50.218Z,24.23
2017-09-18T21:00:16.286Z,21.00
2017-09-18T21:02:42.367Z,21.43
2017-09-18T21:05:09.167Z,20.80
2017-09-18T21:07:35.229Z,21.10
2017-09-18T21:10:01.298Z,23.23
2017-09-18T21:12:27.376Z,21.53
2017-09-18T21:14:53.447Z,26.30
2017-09-18T21:17:19.509Z,22.50
2017-09-18T21:19:45.606Z,22.70
2017-09-18T21:22:11.686Z,24.97
2017-09-18T21:24:38.469Z,25.30
2017-09-18T21:27:05.985Z,23.40
2017-09-18T21:29:32.138Z,24.80
2017-09-18T21:31:58.180Z,24.73
2017-09-18T21:34:25.037Z,23.87
2017-09-18T21:36:51.306Z,23.80
2017-09-18T21:39:17.607Z,25.00
2017-09-18T21:41:43.892Z,24.20
2017-09-18T21:44:10.122Z,22.00
2017-09-18T21:46:36.232Z,23.17
2017-09-18T21:49:02.277Z,26.60
2017-09-18T21:51:28.344Z,23.70
2017-09-18T21:53:54.392Z,26.50
2017-09-18T21:56:21.196Z,26.57
2017-09-18T21:58:47.236Z,27.10
2017-09-18T22:01:13.304Z,26.53
2017-09-18T22:03:39.350Z,24.63
2017-09-18T22:06:06.129Z,26.10
2017-09-18T22:08:32.917Z,24.87
2017-09-18T22:10:58.984Z,23.23
2017-09-18T22:13:25.031Z,24.90
2017-09-18T22:15:51.116Z,22.90
2017-09-18T22:18:17.146Z,24.60
2017-09-18T22:20:43.218Z,26.20
2017-09-18T22:23:10.008Z,30.13
2017-09-18T22:25:36.060Z,28.33
2017-09-18T22:28:02.108Z,28.30
2017-09-18T22:30:28.149Z,28.33
2017-09-18T22:32:54.205Z,25.23
2017-09-18T22:35:20.994Z,29.53
2017-09-18T22:37:47.048Z,28.47
2017-09-18T22:40:13.097Z,27.93
2017-09-18T22:42:39.133Z,26.90
2017-09-18T22:45:05.187Z,27.20
2017-09-18T22:47:31.234Z,27.50
2017-09-18T22:49:57.287Z,26.40
2017-09-18T22:52:23.326Z,23.83
2017-09-18T22:54:49.613Z,28.33
2017-09-18T22:57:15.657Z,25.57
2017-09-18T22:59:41.692Z,27.57
2017-09-18T23:02:07.754Z,26.10
2017-09-18T23:04:33.797Z,25.93
2017-09-18T23:06:59.857Z,25.67
2017-09-18T23:09:25.908Z,25.30
2017-09-18T23:11:51.937Z,25.33
2017-09-18T23:14:18.001Z,24.80
2017-09-18T23:16:44.048Z,24.97
2017-09-18T23:19:10.188Z,26.63
2017-09-18T23:21:36.977Z,24.10
2017-09-18T23:24:03.026Z,26.50
2017-09-18T23:26:29.820Z,22.50
2017-09-18T23:28:55.846Z,24.50
2017-09-18T23:31:22.683Z,22.30
2017-09-18T23:33:49.490Z,27.17
2017-09-18T23:36:15.534Z,26.77
2017-09-18T23:38:41.581Z,27.50
2017-09-18T23:41:07.670Z,30.07
2017-09-18T23:43:33.760Z,26.67
2017-09-18T23:45:59.817Z,24.53
2017-09-18T23:48:25.878Z,28.93
2017-09-18T23:50:51.934Z,27.30
2017-09-18T23:53:17.982Z,26.97
2017-09-18T23:55:44.773Z,29.07
2017-09-18T23:58:10.841Z,29.40
